This is the latest recevied weather packets stored in our database for station/object PP5ABU-13. If no packets are shown the sender has not sent any weather packets the latest 10 day(s).
| Time | Temp. | Humidity | Pressure | Rain* | Wind** | Luminosity | Snow |
|---|---|---|---|---|---|---|---|
| 1777587304 | 21.11° C | 89% | 1016.1 hPa | 0 mm | - | - | - |
| 1777586404 | 21.11° C | 87% | 1016 hPa | 0 mm | - | - | - |
| 1777585504 | 21.67° C | 85% | 1015.7 hPa | 0 mm | - | - | - |
| 1777584604 | 21.67° C | 86% | 1015.4 hPa | 0 mm | - | - | - |
| 1777583704 | 22.22° C | 83% | 1015.1 hPa | 0 mm | - | - | - |
| 1777582804 | 22.22° C | 78% | 1015 hPa | 0 mm | - | - | - |
| 1777581904 | 23.33° C | 74% | 1014.7 hPa | 0 mm | - | - | - |
| 1777581004 | 24.44° C | 71% | 1014.5 hPa | 0 mm | - | - | - |
| 1777579204 | 26.67° C | 67% | 1014.3 hPa | 0 mm | - | - | - |
| 1777578304 | 27.22° C | 62% | 1014.2 hPa | 0 mm | - | - | - |
| 1777577404 | 27.78° C | 58% | 1014.1 hPa | 0 mm | - | - | - |
| 1777576504 | 27.22° C | 62% | 1014.1 hPa | 0 mm | - | - | - |
| 1777575605 | 27.78° C | 60% | 1014.3 hPa | 0 mm | - | - | - |
| 1777574704 | 27.78° C | 60% | 1014.1 hPa | 0 mm | - | - | - |
| 1777573804 | 27.22° C | 63% | 1014 hPa | 0 mm | - | - | - |
| 1777572904 | 27.22° C | 63% | 1014 hPa | 0 mm | - | - | - |
| 1777572004 | 27.78° C | 60% | 1013.9 hPa | 0 mm | - | - | - |
| 1777571104 | 27.78° C | 60% | 1013.8 hPa | 0 mm | - | - | - |
| 1777570204 | 27.78° C | 60% | 1014 hPa | 0 mm | - | - | - |
| 1777569304 | 27.78° C | 58% | 1014.1 hPa | 0 mm | - | - | - |
| 1777568404 | 27.78° C | 59% | 1014.2 hPa | 0 mm | - | - | - |
| 1777567504 | 27.78° C | 60% | 1014.4 hPa | 0 mm | - | - | - |
| 1777566604 | 27.78° C | 57% | 1014.3 hPa | 0 mm | - | - | - |
| 1777565705 | 27.78° C | 57% | 1014.6 hPa | 0 mm | - | - | - |
| 1777564804 | 27.22° C | 60% | 1014.6 hPa | 0 mm | - | - | - |
* Rain latest hour (hover to see other rain measurements)
** Current wind speed in m/s (hover to see current wind gust speed)